Nearby METAR Reports

KLWM - Lawrence,MA, USA
Distance from station: NE 12mi, 19km
Updated: Sun, 22-Oct-2017 2:54pm EDT
Clear
Clear
 Wind from E
Wind: E 12 mph , 19 km/h
Temperature: 66°F , 19°C
Dew Point: 55°F , 13°C
Humidity: 68%
Barometer: 30.41 inHg , 1029.8 hPa
Clouds: Clear
Visibility: 10 miles , 16 km
2017/10/22 18:54 KLWM 221854Z 09010KT 10SM CLR 19/13 A3041 RMK AO2 SLP298 T01890128
KBED - Bedford,MA, USA
Distance from station: SSE 12mi, 19km
Updated: Sun, 22-Oct-2017 2:56pm EDT
Clear
Clear
 Wind from ESE
Wind: ESE 10 mph , 17 km/h
Temperature: 75°F , 24°C
Dew Point: 48°F , 9°C
Humidity: 39%
Barometer: 30.36 inHg , 1028.1 hPa
Clouds: Clear
Visibility: 10 miles , 16 km
2017/10/22 18:56 KBED 221856Z 11009KT 10SM CLR 24/09 A3036 RMK AO2 SLP294 T02390094

Metar display script from Saratoga-Weather.org